Item Display Status Humidity-temperature Sensor

Elevation Above Sea Level: 3 m

 

Deployed Sensor

  • Serial Number: 20370362
  • NDBC Property Number: 43932
  • Start Date: 10/5/2022 (01:08:09 Z)
  • End Date: Currently Active
Relative Humidity [%]     6 entries per hour
Showing data from 4/22/2024 (06:00:00 Z) to 4/21/2024 (00:00:01 Z)
Previous Next [ Day | 3-Days | 7-Days ]
First Last
Prev [ Day | 3-Days | 7-Days ] Next
First Last

Start Time:     :
End Time:     :     
Time (in GMT) :00 :50 :40 :30 :20 :10
Previous Next [ Day | 3-Days | 7-Days ]
First Last
Prev [ Day | 3-Days | 7-Days ] Next
First Last


123 => good data
MM => data is determined as missing
-- => data not received/configured
Back to Top Back to Top
4/22/2024 06:00 to 5:10 79.62 78.93 78.62 78.48 79.11 79.71
4/22/2024 05:00 to 4:10 79.62 80.20 80.69 80.28 79.66 79.79
4/22/2024 04:00 to 3:10 79.32 78.82 78.19 77.59 77.10 76.82
4/22/2024 03:00 to 2:10 76.98 77.04 77.06 77.57 77.98 78.50
4/22/2024 02:00 to 1:10 78.82 79.30 79.93 79.99 79.81 79.64
4/22/2024 01:00 to 0:10 79.38 80.30 80.53 80.92 80.92 81.28
4/22/2024 00:00 to 23:10 81.76 82.04 81.88 82.43 82.84 84.11
4/21/2024 23:00 to 22:10 84.03 83.31 81.20 80.49 80.24 80.12
4/21/2024 22:00 to 21:10 79.97 80.20 80.65 80.81 81.51 81.24
4/21/2024 21:00 to 20:10 81.12 80.81 80.77 81.12 81.31 81.94
4/21/2024 20:00 to 19:10 82.04 81.37 81.33 81.39 81.10 81.31
4/21/2024 19:00 to 18:10 80.81 81.14 80.30 80.08 80.28 80.71
4/21/2024 18:00 to 17:10 81.74 82.17 81.98 81.78 81.76 82.49
4/21/2024 17:00 to 16:10 82.82 82.97 82.60 82.45 82.02 82.10
4/21/2024 16:00 to 15:10 82.54 82.33 82.72 82.39 82.64 82.90
4/21/2024 15:00 to 14:10 83.11 83.79 84.38 84.40 84.16 83.93
4/21/2024 14:00 to 13:10 83.50 83.03 82.78 81.65 81.08 82.93
4/21/2024 13:00 to 12:10 84.87 86.68 87.39 86.74 85.80 82.49
4/21/2024 12:00 to 11:10 82.25 81.98 81.80 82.25 82.33 82.31
4/21/2024 11:00 to 10:10 82.82 83.48 83.72 83.25 83.29 83.42
4/21/2024 10:00 to 9:10 83.85 84.16 84.57 84.77 84.91 84.52
4/21/2024 09:00 to 8:10 84.15 83.99 83.93 83.75 83.83 83.95
4/21/2024 08:00 to 7:10 84.16 85.02 84.75 83.34 82.04 81.82
4/21/2024 07:00 to 6:10 82.41 82.41 82.10 82.08 82.41 82.21
4/21/2024 06:00 to 5:10 82.37 82.93 82.70 82.66 82.35 81.69
4/21/2024 05:00 to 4:10 79.93 79.62 79.19 78.85 78.17 77.14
4/21/2024 04:00 to 3:10 76.45 75.69 74.95 74.89 74.31 74.13
4/21/2024 03:00 to 2:10 72.82 73.97 74.76 75.24 74.93 74.97
4/21/2024 02:00 to 1:10 75.34 75.63 76.18 75.69 77.00 78.25
4/21/2024 01:00 to 0:10 79.36 80.36 79.93 79.66 79.40 79.25

 

 

 

Air Temperature [°C]     6 entries per hour
Showing data from 4/22/2024 (06:00:00 Z) to 4/21/2024 (00:00:01 Z)
Previous Next [ Day | 3-Days | 7-Days ]
First Last
Prev [ Day | 3-Days | 7-Days ] Next
First Last

Start Time:     :
End Time:     :     
Time (in GMT) :00 :50 :40 :30 :20 :10
Previous Next [ Day | 3-Days | 7-Days ]
First Last
Prev [ Day | 3-Days | 7-Days ] Next
First Last


123 => good data
MM => data is determined as missing
-- => data not received/configured
Back to Top Back to Top
4/22/2024 06:00 to 5:10 30.20 30.06 30.07 30.01 29.83 29.98
4/22/2024 05:00 to 4:10 30.03 29.87 29.92 30.02 30.01 30.10
4/22/2024 04:00 to 3:10 30.14 30.16 30.30 30.34 30.50 30.53
4/22/2024 03:00 to 2:10 30.51 30.37 30.35 30.31 30.16 30.21
4/22/2024 02:00 to 1:10 30.12 30.00 30.10 30.07 30.04 30.28
4/22/2024 01:00 to 0:10 29.83 29.87 29.95 30.03 30.01 29.84
4/22/2024 00:00 to 23:10 29.88 30.04 29.86 29.71 29.70 29.52
4/21/2024 23:00 to 22:10 29.21 29.01 29.89 29.97 29.85 29.91
4/21/2024 22:00 to 21:10 29.93 29.66 29.84 29.96 30.05 29.80
4/21/2024 21:00 to 20:10 29.88 29.78 29.82 29.81 29.59 29.67
4/21/2024 20:00 to 19:10 29.76 29.80 29.81 29.83 29.80 29.62
4/21/2024 19:00 to 18:10 29.75 29.75 29.85 30.15 29.71 29.83
4/21/2024 18:00 to 17:10 29.81 29.80 29.83 29.81 29.73 29.63
4/21/2024 17:00 to 16:10 29.53 29.51 29.48 29.67 29.42 29.44
4/21/2024 16:00 to 15:10 29.39 29.19 29.43 29.16 29.08 29.15
4/21/2024 15:00 to 14:10 29.05 28.96 29.00 28.95 28.90 28.94
4/21/2024 14:00 to 13:10 28.91 28.87 29.03 29.05 28.81 28.78
4/21/2024 13:00 to 12:10 28.28 27.63 27.78 28.23 28.23 29.53
4/21/2024 12:00 to 11:10 29.40 29.41 29.37 29.35 29.56 29.28
4/21/2024 11:00 to 10:10 29.19 29.30 29.28 29.31 29.25 29.28
4/21/2024 10:00 to 9:10 29.23 29.16 29.24 29.14 29.27 29.28
4/21/2024 09:00 to 8:10 29.21 29.24 29.38 29.58 29.45 29.51
4/21/2024 08:00 to 7:10 29.39 29.11 29.40 29.57 29.75 29.82
4/21/2024 07:00 to 6:10 29.53 29.80 29.79 29.76 29.84 29.72
4/21/2024 06:00 to 5:10 29.72 29.69 29.63 29.57 29.47 29.88
4/21/2024 05:00 to 4:10 29.82 29.94 29.86 30.01 29.97 30.11
4/21/2024 04:00 to 3:10 30.07 30.31 30.25 30.23 30.50 30.55
4/21/2024 03:00 to 2:10 30.57 30.39 30.41 30.39 30.30 30.35
4/21/2024 02:00 to 1:10 30.36 30.16 30.30 30.32 29.94 30.03
4/21/2024 01:00 to 0:10 29.92 30.11 30.07 30.14 30.05 29.97